Les Bruxellois — 9HB5703 — position and weather

sailwx.info

Track history (hours):
 
Tides and Currents Weather Stations Pressure Air Temp Water Temp Dewpoint Dewpoint Depression Visibility Wind Speed Wind Dir Waves Ship Positions

Les Bruxellois

Last reported at 2017-Oct-05 16:44 UTC. Time now 2017-Oct-17 13:47 UTC.
Position N 37°58' E 022°56'.
Warning: this ship's position is 11 days out of date.

Length 34 m; draft 22.2 m.

Type: Pleasure craft. MMSI: 248407000.

Date/timePositionNaut miles runAvg speedWind from/ knotsBaromVisibWave heightAir tempDewpointWater temp
2017-Oct-05 16:44N 37°58' E 022°56'5 4.1
2017-Oct-05 15:30N 37°55' E 023°01'2 3.6
2017-Oct-05 15:00N 37°54' E 023°03'5 9.3
2017-Oct-05 14:30N 37°53' E 023°09'612.6
2017-Oct-05 14:00N 37°51' E 023°17'612.7
2017-Oct-05 13:30N 37°49' E 023°24'612.4
2017-Oct-05 13:00N 37°47' E 023°32'612.5
2017-Oct-05 12:30N 37°45' E 023°39'612.5
2017-Oct-05 12:00N 37°42' E 023°46'4712.1
2017-Oct-05 08:06N 37°31' E 024°44'112.2
2017-Oct-05 08:00N 37°31' E 024°45'812.2
2017-Oct-05 07:20N 37°31' E 024°56'512.5
2017-Oct-05 06:56N 37°30' E 025°02'512.4
2017-Oct-05 06:30N 37°30' E 025°08'611.9
2017-Oct-05 06:00N 37°27' E 025°15'510.6
2017-Oct-05 05:31N 37°23' E 025°20'1 1.8
2017-Oct-05 05:00N 37°24' E 025°21'1 1.0
2017-Oct-05 04:30N 37°24' E 025°20'0 0.5
2017-Oct-05 04:01N 37°25' E 025°21'0 0.0
2017-Oct-05 03:31N 37°25' E 025°21'0 0.0
2017-Oct-05 03:01N 37°25' E 025°21'0 0.0
2017-Oct-05 02:31N 37°25' E 025°21'0 0.0
2017-Oct-05 02:01N 37°25' E 025°21'0 0.0
2017-Oct-05 01:30N 37°25' E 025°21'0 0.0
2017-Oct-05 01:01N 37°25' E 025°21'0 0.0
2017-Oct-05 00:30N 37°25' E 025°21'0 0.0
2017-Oct-05 00:01N 37°25' E 025°21'0 0.1
2017-Oct-04 23:30N 37°25' E 025°21'0 0.0
2017-Oct-04 23:00N 37°25' E 025°21'0 0.0
2017-Oct-04 22:31N 37°25' E 025°21'0 0.0
2017-Oct-04 22:01N 37°25' E 025°21'0 0.0
2017-Oct-04 21:31N 37°25' E 025°21'0 0.0
2017-Oct-04 21:01N 37°25' E 025°21'0 0.0
2017-Oct-04 20:31N 37°25' E 025°21'0 0.0
2017-Oct-04 20:00N 37°25' E 025°21'0 0.0
2017-Oct-04 19:30N 37°25' E 025°21'0 0.0
2017-Oct-04 19:00N 37°25' E 025°21'0 0.0
2017-Oct-04 18:30N 37°25' E 025°21'0 0.1
2017-Oct-04 18:01N 37°25' E 025°21'0 0.0
2017-Oct-04 17:30N 37°25' E 025°21'0 0.0
2017-Oct-04 17:01N 37°25' E 025°21'0 0.0
2017-Oct-04 16:30N 37°25' E 025°21'0 0.0
2017-Oct-04 16:01N 37°24' E 025°21'0 0.0
2017-Oct-04 15:31N 37°25' E 025°21'0 0.0
2017-Oct-04 15:01N 37°25' E 025°21'0 0.0
2017-Oct-04 14:31N 37°25' E 025°21'0 0.0
2017-Oct-04 14:01N 37°25' E 025°21'0 0.0
2017-Oct-04 13:31N 37°25' E 025°21'0 0.1
2017-Oct-04 13:01N 37°25' E 025°21'0 0.1
2017-Oct-04 12:31N 37°25' E 025°21'0 0.1
2017-Oct-04 12:01N 37°25' E 025°21'0 0.1
2017-Oct-04 11:31N 37°25' E 025°21'0 0.0
2017-Oct-04 11:01N 37°25' E 025°21'0 0.1
2017-Oct-04 10:31N 37°25' E 025°21'0 0.1
2017-Oct-04 10:00N 37°25' E 025°21'0 0.0
2017-Oct-04 09:31N 37°25' E 025°21'0 0.0
2017-Oct-04 09:01N 37°25' E 025°21'0 0.0
2017-Oct-04 08:31N 37°25' E 025°21'0 0.0
2017-Oct-04 08:01N 37°25' E 025°21'0 0.0
2017-Oct-04 07:31N 37°25' E 025°21'0 0.0
2017-Oct-04 07:01N 37°25' E 025°21'0 0.0
2017-Oct-04 06:31N 37°25' E 025°21'0 0.0
2017-Oct-04 06:01N 37°25' E 025°21'0 0.1
2017-Oct-04 05:31N 37°25' E 025°21'0 0.0
2017-Oct-04 05:01N 37°25' E 025°21'0 0.0
2017-Oct-04 04:31N 37°25' E 025°21'0 0.0
2017-Oct-04 04:01N 37°25' E 025°21'0 0.0
2017-Oct-04 03:31N 37°25' E 025°21'0 0.0
2017-Oct-04 03:01N 37°25' E 025°21'0 0.0
2017-Oct-04 02:30N 37°25' E 025°21'0 0.0
2017-Oct-04 02:00N 37°25' E 025°21'0 0.0
2017-Oct-04 01:31N 37°25' E 025°21'0 0.0
2017-Oct-04 01:01N 37°25' E 025°21'0 0.0
2017-Oct-04 00:31N 37°25' E 025°21'0 0.0
2017-Oct-04 00:01N 37°25' E 025°21'0 0.0
2017-Oct-03 23:31N 37°25' E 025°21'0 0.0
2017-Oct-03 23:01N 37°25' E 025°21'0 0.0
2017-Oct-03 22:31N 37°25' E 025°21'0 0.0
2017-Oct-03 22:01N 37°25' E 025°21'0 0.0
2017-Oct-03 21:31N 37°25' E 025°21'0 0.1
2017-Oct-03 21:01N 37°25' E 025°21'0 0.0
2017-Oct-03 20:31N 37°25' E 025°21'0 0.1
2017-Oct-03 20:01N 37°25' E 025°21'0 0.0
2017-Oct-03 19:30N 37°25' E 025°21'0 0.0
2017-Oct-03 19:00N 37°25' E 025°21'0 0.1
2017-Oct-03 18:31N 37°25' E 025°21'0 0.0
2017-Oct-03 18:01N 37°25' E 025°21'0 0.0
2017-Oct-03 17:31N 37°25' E 025°21'0 0.0
2017-Oct-03 17:01N 37°25' E 025°21'0 0.0
2017-Oct-03 16:31N 37°25' E 025°21'0 0.0
2017-Oct-03 16:01N 37°25' E 025°21'0 0.0
2017-Oct-03 15:30N 37°25' E 025°21'0 0.1
2017-Oct-03 15:01N 37°25' E 025°21'0 0.0
2017-Oct-03 14:01N 37°25' E 025°21'0 0.1
2017-Oct-03 13:31N 37°25' E 025°21'0 0.1
2017-Oct-03 13:01N 37°25' E 025°21'0 0.0
2017-Oct-03 12:30N 37°25' E 025°21'0 0.0
2017-Oct-03 12:01N 37°25' E 025°21'0 0.1
2017-Oct-03 11:31N 37°25' E 025°21'0 0.1
2017-Oct-03 11:01N 37°25' E 025°21'0 0.0
2017-Oct-03 10:30N 37°25' E 025°21'0 0.0
2017-Oct-03 10:01N 37°25' E 025°21'0 0.0
2017-Oct-03 09:31N 37°25' E 025°21'0 0.0
2017-Oct-03 09:00N 37°25' E 025°21'0 0.0
2017-Oct-03 08:31N 37°25' E 025°21'0 0.0
2017-Oct-03 08:01N 37°25' E 025°21'0 0.0
2017-Oct-03 07:30N 37°25' E 025°21'0 0.0
2017-Oct-03 07:01N 37°25' E 025°21'0 0.0
2017-Oct-03 06:31N 37°25' E 025°21'0 0.0
2017-Oct-03 06:01N 37°25' E 025°21'0 0.0
2017-Oct-03 05:31N 37°25' E 025°21'0 0.0
2017-Oct-03 05:00N 37°25' E 025°21'0 0.0
2017-Oct-03 04:31N 37°25' E 025°21'0 0.0
2017-Oct-03 04:00N 37°25' E 025°21'0 0.0
2017-Oct-03 03:30N 37°25' E 025°21'0 0.0
2017-Oct-03 03:01N 37°25' E 025°21'0 0.0
2017-Oct-03 02:31N 37°25' E 025°21'0 0.0
2017-Oct-03 02:01N 37°25' E 025°21'0 0.0
2017-Oct-03 01:31N 37°25' E 025°21'0 0.0
2017-Oct-03 01:00N 37°25' E 025°21'0 0.0
2017-Oct-03 00:31N 37°25' E 025°21'0 0.0
2017-Oct-03 00:01N 37°25' E 025°21'0 0.0
2017-Oct-02 23:30N 37°25' E 025°21'0 0.0
2017-Oct-02 23:00N 37°25' E 025°21'0 0.0
2017-Oct-02 22:30N 37°25' E 025°21'0 0.0
2017-Oct-02 22:00N 37°25' E 025°21'0 0.0
2017-Oct-02 21:30N 37°25' E 025°21'0 0.0
2017-Oct-02 21:00N 37°25' E 025°21'0 0.0
2017-Oct-02 20:31N 37°25' E 025°21'0 0.0
2017-Oct-02 20:00N 37°25' E 025°21'0 0.0
2017-Oct-02 19:30N 37°25' E 025°21'0 0.0
2017-Oct-02 19:00N 37°25' E 025°21'0 0.0
2017-Oct-02 18:31N 37°25' E 025°21'0 0.0
2017-Oct-02 18:01N 37°25' E 025°21'0 0.1
2017-Oct-02 17:30N 37°25' E 025°21'0 0.0
2017-Oct-02 17:01N 37°25' E 025°21'0 0.0
2017-Oct-02 16:31N 37°25' E 025°21'0 0.0
2017-Oct-02 16:01N 37°25' E 025°21'0 0.1
2017-Oct-02 15:31N 37°25' E 025°21'0 0.0
2017-Oct-02 15:01N 37°25' E 025°21'0 0.0
2017-Oct-02 14:31N 37°25' E 025°21'0 0.0
2017-Oct-02 14:01N 37°25' E 025°21'0 0.0
2017-Oct-02 13:31N 37°25' E 025°21'0 0.0
2017-Oct-02 13:01N 37°25' E 025°21'0 0.0
2017-Oct-02 12:30N 37°25' E 025°21'0 0.0
2017-Oct-02 12:01N 37°25' E 025°21'0 0.0
2017-Oct-02 11:31N 37°25' E 025°21'0 0.0
2017-Oct-02 11:01N 37°25' E 025°21'0 0.0
2017-Oct-02 10:30N 37°25' E 025°21'0 0.0
2017-Oct-02 10:01N 37°25' E 025°21'0 0.0
2017-Oct-02 09:31N 37°25' E 025°21'0 0.0
2017-Oct-02 09:01N 37°25' E 025°21'0 0.0
2017-Oct-02 08:31N 37°25' E 025°21'  
2017-Sep-28 22:04N 37°25' E 025°21'0 0.3
2017-Sep-28 22:00N 37°25' E 025°21'0 0.0
2017-Sep-28 21:30N 37°25' E 025°21'0 0.0
2017-Sep-28 21:00N 37°25' E 025°21'0 0.0
2017-Sep-28 20:30N 37°25' E 025°21'0 0.0
2017-Sep-28 20:01N 37°25' E 025°21'0 0.0
2017-Sep-28 19:31N 37°25' E 025°21'0 0.0
2017-Sep-28 19:00N 37°25' E 025°21'0 0.0
2017-Sep-28 18:31N 37°25' E 025°21'0 0.0
2017-Sep-28 18:00N 37°25' E 025°21'0 0.0
2017-Sep-28 17:31N 37°25' E 025°21'0 0.0
2017-Sep-28 17:00N 37°25' E 025°21'0 0.0
2017-Sep-28 16:30N 37°25' E 025°21'1 1.8
2017-Sep-28 16:01N 37°25' E 025°20'0 0.1
2017-Sep-28 15:31N 37°25' E 025°20'0 0.3
2017-Sep-28 15:00N 37°25' E 025°20'0 0.1
2017-Sep-28 14:31N 37°25' E 025°20'0 0.3
2017-Sep-28 14:00N 37°25' E 025°20'0 0.5
2017-Sep-28 13:31N 37°25' E 025°19'5 9.1
2017-Sep-28 13:01N 37°23' E 025°14'0 0.8
2017-Sep-28 12:30N 37°23' E 025°14'0 0.0
2017-Sep-28 12:00N 37°23' E 025°14'0 0.0
2017-Sep-28 11:31N 37°23' E 025°14'0 0.0
2017-Sep-28 11:00N 37°23' E 025°14'0 0.0
2017-Sep-28 10:30N 37°23' E 025°14'0 0.0
2017-Sep-28 10:00N 37°23' E 025°14'0 0.0
2017-Sep-28 09:30N 37°23' E 025°14'0 0.0
2017-Sep-28 09:00N 37°23' E 025°14'2 3.4
2017-Sep-28 08:31N 37°22' E 025°16'5 9.2
2017-Sep-28 08:01N 37°24' E 025°21'0 0.0
2017-Sep-28 07:31N 37°24' E 025°21'0 0.1
2017-Sep-28 07:01N 37°24' E 025°21'0 0.0
2017-Sep-28 06:31N 37°24' E 025°21'0 0.0
2017-Sep-28 06:00N 37°24' E 025°21'0 0.0
2017-Sep-28 05:31N 37°24' E 025°21'0 0.0
2017-Sep-28 05:01N 37°24' E 025°21'0 0.0
2017-Sep-28 04:31N 37°24' E 025°21'0 0.0
2017-Sep-28 04:01N 37°24' E 025°21'0 0.0
2017-Sep-28 03:31N 37°24' E 025°21'0 0.1
2017-Sep-28 03:01N 37°24' E 025°21'0 0.0
2017-Sep-28 02:31N 37°24' E 025°21'0 0.0
2017-Sep-28 02:00N 37°24' E 025°21'0 0.0
2017-Sep-28 01:30N 37°24' E 025°21'0 0.0
2017-Sep-28 01:00N 37°24' E 025°21'0 0.0
2017-Sep-28 00:30N 37°24' E 025°21'0 0.0
2017-Sep-28 00:01N 37°24' E 025°21'0 0.0
2017-Sep-27 23:31N 37°24' E 025°21'0 0.0
2017-Sep-27 23:01N 37°24' E 025°21'0 0.0
2017-Sep-27 22:30N 37°24' E 025°21'0 0.0
2017-Sep-27 22:01N 37°24' E 025°21'0 0.0
2017-Sep-27 21:30N 37°24' E 025°21'0 0.0
2017-Sep-27 21:01N 37°24' E 025°21'0 0.0
2017-Sep-27 20:30N 37°24' E 025°21'0 0.0
2017-Sep-27 20:00N 37°24' E 025°21'0 0.0
2017-Sep-27 19:30N 37°24' E 025°21'0 0.0
2017-Sep-27 19:00N 37°24' E 025°21'0 0.0
2017-Sep-27 18:30N 37°24' E 025°21'0 0.0
2017-Sep-27 18:00N 37°24' E 025°21'0 0.0
2017-Sep-27 17:31N 37°24' E 025°21'0 0.0
2017-Sep-27 17:00N 37°24' E 025°21'0 0.0
2017-Sep-27 16:30N 37°24' E 025°21'0 0.0
2017-Sep-27 16:01N 37°24' E 025°21'0 0.0
2017-Sep-27 15:30N 37°24' E 025°21'0 0.0
2017-Sep-27 15:00N 37°24' E 025°21'0 0.0
2017-Sep-27 14:30N 37°24' E 025°21'0 0.0
2017-Sep-27 14:01N 37°24' E 025°21'0 0.0
2017-Sep-27 13:30N 37°24' E 025°21'0 0.0
2017-Sep-27 13:01N 37°24' E 025°21'0 0.0
2017-Sep-27 12:30N 37°24' E 025°21'0 0.0
2017-Sep-27 12:00N 37°24' E 025°21'0 0.0
2017-Sep-27 11:31N 37°24' E 025°21'0 0.0
2017-Sep-27 11:00N 37°24' E 025°21'0 0.0
2017-Sep-27 10:30N 37°24' E 025°21'0 0.0
2017-Sep-27 10:00N 37°24' E 025°21'0 0.0
2017-Sep-27 09:30N 37°24' E 025°21'0 0.0
2017-Sep-27 09:00N 37°24' E 025°21'0 0.0
2017-Sep-27 08:30N 37°24' E 025°21'0 0.0
2017-Sep-27 08:00N 37°24' E 025°21'0 0.0
2017-Sep-27 07:30N 37°24' E 025°21'0 0.0
2017-Sep-27 07:01N 37°24' E 025°21'0 0.0
2017-Sep-27 06:31N 37°24' E 025°21'0 0.0
2017-Sep-27 06:00N 37°24' E 025°21'0 0.0
2017-Sep-27 05:31N 37°24' E 025°21'0 0.0
2017-Sep-27 05:00N 37°24' E 025°21'0 0.0
2017-Sep-27 04:31N 37°24' E 025°21'0 0.0
2017-Sep-27 04:00N 37°24' E 025°21'0 0.0
2017-Sep-27 03:30N 37°24' E 025°21'0 0.0
2017-Sep-27 03:00N 37°24' E 025°21'0 0.0
2017-Sep-27 02:30N 37°24' E 025°21'0 0.0
2017-Sep-27 02:00N 37°24' E 025°21'0 0.0
2017-Sep-27 01:30N 37°24' E 025°21'0 0.0
2017-Sep-27 01:00N 37°24' E 025°21'0 0.0
2017-Sep-27 00:30N 37°24' E 025°21'0 0.0
2017-Sep-27 00:00N 37°24' E 025°21'0 0.0
2017-Sep-26 23:30N 37°24' E 025°21'0 0.0
2017-Sep-26 23:00N 37°24' E 025°21'0 0.0
2017-Sep-26 22:30N 37°25' E 025°21'0 0.0
2017-Sep-26 22:00N 37°24' E 025°21'0 0.0
2017-Sep-26 21:30N 37°24' E 025°21'0 0.0
2017-Sep-26 21:01N 37°24' E 025°21'0 0.0
2017-Sep-26 20:30N 37°24' E 025°21'0 0.0
2017-Sep-26 20:00N 37°24' E 025°21'0 0.0
2017-Sep-26 19:30N 37°24' E 025°21'0 0.0
2017-Sep-26 19:00N 37°24' E 025°21'0 0.0
2017-Sep-26 18:30N 37°24' E 025°21'0 0.0
2017-Sep-26 18:00N 37°24' E 025°21'0 0.0
2017-Sep-26 17:31N 37°24' E 025°21'0 0.0
2017-Sep-26 17:00N 37°24' E 025°21'0 0.0
2017-Sep-26 16:30N 37°24' E 025°21'0 0.0
2017-Sep-26 16:00N 37°24' E 025°21'0 0.0
2017-Sep-26 15:31N 37°24' E 025°21'0 0.0
2017-Sep-26 15:01N 37°24' E 025°21'0 0.0
2017-Sep-26 14:30N 37°24' E 025°21'0 0.0
2017-Sep-26 14:01N 37°24' E 025°21'0 0.0
2017-Sep-26 13:31N 37°24' E 025°21'0 0.0
2017-Sep-26 13:01N 37°24' E 025°21'0 0.0
2017-Sep-26 12:31N 37°24' E 025°21'0 0.0
2017-Sep-26 12:01N 37°25' E 025°21'0 0.0
2017-Sep-26 11:30N 37°24' E 025°21'0 0.0
2017-Sep-26 11:01N 37°25' E 025°21'0 0.0
2017-Sep-26 10:30N 37°25' E 025°21'0 0.0
2017-Sep-26 10:00N 37°24' E 025°21'0 0.0
2017-Sep-26 09:30N 37°24' E 025°21'0 0.0
2017-Sep-26 09:00N 37°25' E 025°21'3 5.0
2017-Sep-26 08:31N 37°26' E 025°18'2 3.8
2017-Sep-26 08:00N 37°27' E 025°20'0 0.0
2017-Sep-26 07:31N 37°27' E 025°20'0 0.0
2017-Sep-26 06:59N 37°27' E 025°20'0 0.0
2017-Sep-26 06:30N 37°27' E 025°20'0 0.0
2017-Sep-26 06:01N 37°27' E 025°20'0 0.0
2017-Sep-26 05:31N 37°27' E 025°20'0 0.0
2017-Sep-26 05:00N 37°27' E 025°20'0 0.0
2017-Sep-26 04:31N 37°27' E 025°20'0 0.0
2017-Sep-26 04:00N 37°27' E 025°20'0 0.0
2017-Sep-26 03:31N 37°27' E 025°20'0 0.0
2017-Sep-26 03:00N 37°27' E 025°20'0 0.0
2017-Sep-26 02:30N 37°27' E 025°20'0 0.0
2017-Sep-26 02:01N 37°27' E 025°20'0 0.0
2017-Sep-26 01:30N 37°27' E 025°20'0 0.0
2017-Sep-26 01:00N 37°27' E 025°20'0 0.0
2017-Sep-26 00:30N 37°27' E 025°20'0 0.0
2017-Sep-26 00:00N 37°27' E 025°20'0 0.0
2017-Sep-25 23:31N 37°27' E 025°20'0 0.0
2017-Sep-25 23:00N 37°27' E 025°20'0 0.0
2017-Sep-25 22:30N 37°27' E 025°20'0 0.0
2017-Sep-25 22:00N 37°27' E 025°20'0 0.0
2017-Sep-25 21:31N 37°27' E 025°20'0 0.0
2017-Sep-25 21:00N 37°27' E 025°20'0 0.0
2017-Sep-25 20:30N 37°27' E 025°20'0 0.0
2017-Sep-25 20:00N 37°27' E 025°20'0 0.0
2017-Sep-25 19:31N 37°27' E 025°20'0 0.0
2017-Sep-25 19:01N 37°27' E 025°20'0 0.0
2017-Sep-25 18:30N 37°27' E 025°20'0 0.0
2017-Sep-25 18:00N 37°27' E 025°20'0 0.0
2017-Sep-25 17:30N 37°27' E 025°20'0 0.0
2017-Sep-25 17:00N 37°27' E 025°20'  
Track history (hours):
 
Tides and Currents Weather Stations Pressure Air Temp Water Temp Dewpoint Dewpoint Depression Visibility Wind Speed Wind Dir Waves Ship Positions

Les Bruxellois

Last reported at 2017-Oct-05 16:44 UTC. Time now 2017-Oct-17 13:47 UTC.
Position N 37°58' E 022°56'.
Warning: this ship's position is 11 days out of date.

Length 34 m; draft 22.2 m.

Type: Pleasure craft. MMSI: 248407000.

Date/timePositionNaut miles runAvg speedWind from/ knotsBaromVisibWave heightAir tempDewpointWater temp
2017-Oct-05 16:44N 37°58' E 022°56'5 4.1
2017-Oct-05 15:30N 37°55' E 023°01'2 3.6
2017-Oct-05 15:00N 37°54' E 023°03'5 9.3
2017-Oct-05 14:30N 37°53' E 023°09'612.6
2017-Oct-05 14:00N 37°51' E 023°17'612.7
2017-Oct-05 13:30N 37°49' E 023°24'612.4
2017-Oct-05 13:00N 37°47' E 023°32'612.5
2017-Oct-05 12:30N 37°45' E 023°39'612.5
2017-Oct-05 12:00N 37°42' E 023°46'4712.1
2017-Oct-05 08:06N 37°31' E 024°44'112.2
2017-Oct-05 08:00N 37°31' E 024°45'812.2
2017-Oct-05 07:20N 37°31' E 024°56'512.5
2017-Oct-05 06:56N 37°30' E 025°02'512.4
2017-Oct-05 06:30N 37°30' E 025°08'611.9
2017-Oct-05 06:00N 37°27' E 025°15'510.6
2017-Oct-05 05:31N 37°23' E 025°20'1 1.8
2017-Oct-05 05:00N 37°24' E 025°21'1 1.0
2017-Oct-05 04:30N 37°24' E 025°20'0 0.5
2017-Oct-05 04:01N 37°25' E 025°21'0 0.0
2017-Oct-05 03:31N 37°25' E 025°21'0 0.0
2017-Oct-05 03:01N 37°25' E 025°21'0 0.0
2017-Oct-05 02:31N 37°25' E 025°21'0 0.0
2017-Oct-05 02:01N 37°25' E 025°21'0 0.0
2017-Oct-05 01:30N 37°25' E 025°21'0 0.0
2017-Oct-05 01:01N 37°25' E 025°21'0 0.0
2017-Oct-05 00:30N 37°25' E 025°21'0 0.0
2017-Oct-05 00:01N 37°25' E 025°21'0 0.1
2017-Oct-04 23:30N 37°25' E 025°21'0 0.0
2017-Oct-04 23:00N 37°25' E 025°21'0 0.0
2017-Oct-04 22:31N 37°25' E 025°21'0 0.0
2017-Oct-04 22:01N 37°25' E 025°21'0 0.0
2017-Oct-04 21:31N 37°25' E 025°21'0 0.0
2017-Oct-04 21:01N 37°25' E 025°21'0 0.0
2017-Oct-04 20:31N 37°25' E 025°21'0 0.0
2017-Oct-04 20:00N 37°25' E 025°21'0 0.0
2017-Oct-04 19:30N 37°25' E 025°21'0 0.0
2017-Oct-04 19:00N 37°25' E 025°21'0 0.0
2017-Oct-04 18:30N 37°25' E 025°21'0 0.1
2017-Oct-04 18:01N 37°25' E 025°21'0 0.0
2017-Oct-04 17:30N 37°25' E 025°21'0 0.0
2017-Oct-04 17:01N 37°25' E 025°21'0 0.0
2017-Oct-04 16:30N 37°25' E 025°21'0 0.0
2017-Oct-04 16:01N 37°24' E 025°21'0 0.0
2017-Oct-04 15:31N 37°25' E 025°21'0 0.0
2017-Oct-04 15:01N 37°25' E 025°21'0 0.0
2017-Oct-04 14:31N 37°25' E 025°21'0 0.0
2017-Oct-04 14:01N 37°25' E 025°21'0 0.0
2017-Oct-04 13:31N 37°25' E 025°21'0 0.1
2017-Oct-04 13:01N 37°25' E 025°21'0 0.1
2017-Oct-04 12:31N 37°25' E 025°21'0 0.1
2017-Oct-04 12:01N 37°25' E 025°21'0 0.1
2017-Oct-04 11:31N 37°25' E 025°21'0 0.0
2017-Oct-04 11:01N 37°25' E 025°21'0 0.1
2017-Oct-04 10:31N 37°25' E 025°21'0 0.1
2017-Oct-04 10:00N 37°25' E 025°21'0 0.0
2017-Oct-04 09:31N 37°25' E 025°21'0 0.0
2017-Oct-04 09:01N 37°25' E 025°21'0 0.0
2017-Oct-04 08:31N 37°25' E 025°21'0 0.0
2017-Oct-04 08:01N 37°25' E 025°21'0 0.0
2017-Oct-04 07:31N 37°25' E 025°21'0 0.0
2017-Oct-04 07:01N 37°25' E 025°21'0 0.0
2017-Oct-04 06:31N 37°25' E 025°21'0 0.0
2017-Oct-04 06:01N 37°25' E 025°21'0 0.1
2017-Oct-04 05:31N 37°25' E 025°21'0 0.0
2017-Oct-04 05:01N 37°25' E 025°21'0 0.0
2017-Oct-04 04:31N 37°25' E 025°21'0 0.0
2017-Oct-04 04:01N 37°25' E 025°21'0 0.0
2017-Oct-04 03:31N 37°25' E 025°21'0 0.0
2017-Oct-04 03:01N 37°25' E 025°21'0 0.0
2017-Oct-04 02:30N 37°25' E 025°21'0 0.0
2017-Oct-04 02:00N 37°25' E 025°21'0 0.0
2017-Oct-04 01:31N 37°25' E 025°21'0 0.0
2017-Oct-04 01:01N 37°25' E 025°21'0 0.0
2017-Oct-04 00:31N 37°25' E 025°21'0 0.0
2017-Oct-04 00:01N 37°25' E 025°21'0 0.0
2017-Oct-03 23:31N 37°25' E 025°21'0 0.0
2017-Oct-03 23:01N 37°25' E 025°21'0 0.0
2017-Oct-03 22:31N 37°25' E 025°21'0 0.0
2017-Oct-03 22:01N 37°25' E 025°21'0 0.0
2017-Oct-03 21:31N 37°25' E 025°21'0 0.1
2017-Oct-03 21:01N 37°25' E 025°21'0 0.0
2017-Oct-03 20:31N 37°25' E 025°21'0 0.1
2017-Oct-03 20:01N 37°25' E 025°21'0 0.0
2017-Oct-03 19:30N 37°25' E 025°21'0 0.0
2017-Oct-03 19:00N 37°25' E 025°21'0 0.1
2017-Oct-03 18:31N 37°25' E 025°21'0 0.0
2017-Oct-03 18:01N 37°25' E 025°21'0 0.0
2017-Oct-03 17:31N 37°25' E 025°21'0 0.0
2017-Oct-03 17:01N 37°25' E 025°21'0 0.0
2017-Oct-03 16:31N 37°25' E 025°21'0 0.0
2017-Oct-03 16:01N 37°25' E 025°21'0 0.0
2017-Oct-03 15:30N 37°25' E 025°21'0 0.1
2017-Oct-03 15:01N 37°25' E 025°21'0 0.0
2017-Oct-03 14:01N 37°25' E 025°21'0 0.1
2017-Oct-03 13:31N 37°25' E 025°21'0 0.1
2017-Oct-03 13:01N 37°25' E 025°21'0 0.0
2017-Oct-03 12:30N 37°25' E 025°21'0 0.0
2017-Oct-03 12:01N 37°25' E 025°21'0 0.1
2017-Oct-03 11:31N 37°25' E 025°21'0 0.1
2017-Oct-03 11:01N 37°25' E 025°21'0 0.0
2017-Oct-03 10:30N 37°25' E 025°21'0 0.0
2017-Oct-03 10:01N 37°25' E 025°21'0 0.0
2017-Oct-03 09:31N 37°25' E 025°21'0 0.0
2017-Oct-03 09:00N 37°25' E 025°21'0 0.0
2017-Oct-03 08:31N 37°25' E 025°21'0 0.0
2017-Oct-03 08:01N 37°25' E 025°21'0 0.0
2017-Oct-03 07:30N 37°25' E 025°21'0 0.0
2017-Oct-03 07:01N 37°25' E 025°21'0 0.0
2017-Oct-03 06:31N 37°25' E 025°21'0 0.0
2017-Oct-03 06:01N 37°25' E 025°21'0 0.0
2017-Oct-03 05:31N 37°25' E 025°21'0 0.0
2017-Oct-03 05:00N 37°25' E 025°21'0 0.0
2017-Oct-03 04:31N 37°25' E 025°21'0 0.0
2017-Oct-03 04:00N 37°25' E 025°21'0 0.0
2017-Oct-03 03:30N 37°25' E 025°21'0 0.0
2017-Oct-03 03:01N 37°25' E 025°21'0 0.0
2017-Oct-03 02:31N 37°25' E 025°21'0 0.0
2017-Oct-03 02:01N 37°25' E 025°21'0 0.0
2017-Oct-03 01:31N 37°25' E 025°21'0 0.0
2017-Oct-03 01:00N 37°25' E 025°21'0 0.0
2017-Oct-03 00:31N 37°25' E 025°21'0 0.0
2017-Oct-03 00:01N 37°25' E 025°21'0 0.0
2017-Oct-02 23:30N 37°25' E 025°21'0 0.0
2017-Oct-02 23:00N 37°25' E 025°21'0 0.0
2017-Oct-02 22:30N 37°25' E 025°21'0 0.0
2017-Oct-02 22:00N 37°25' E 025°21'0 0.0
2017-Oct-02 21:30N 37°25' E 025°21'0 0.0
2017-Oct-02 21:00N 37°25' E 025°21'0 0.0
2017-Oct-02 20:31N 37°25' E 025°21'0 0.0
2017-Oct-02 20:00N 37°25' E 025°21'0 0.0
2017-Oct-02 19:30N 37°25' E 025°21'0 0.0
2017-Oct-02 19:00N 37°25' E 025°21'0 0.0
2017-Oct-02 18:31N 37°25' E 025°21'0 0.0
2017-Oct-02 18:01N 37°25' E 025°21'0 0.1
2017-Oct-02 17:30N 37°25' E 025°21'0 0.0
2017-Oct-02 17:01N 37°25' E 025°21'0 0.0
2017-Oct-02 16:31N 37°25' E 025°21'0 0.0
2017-Oct-02 16:01N 37°25' E 025°21'0 0.1
2017-Oct-02 15:31N 37°25' E 025°21'0 0.0
2017-Oct-02 15:01N 37°25' E 025°21'0 0.0
2017-Oct-02 14:31N 37°25' E 025°21'0 0.0
2017-Oct-02 14:01N 37°25' E 025°21'0 0.0
2017-Oct-02 13:31N 37°25' E 025°21'0 0.0
2017-Oct-02 13:01N 37°25' E 025°21'0 0.0
2017-Oct-02 12:30N 37°25' E 025°21'0 0.0
2017-Oct-02 12:01N 37°25' E 025°21'0 0.0
2017-Oct-02 11:31N 37°25' E 025°21'0 0.0
2017-Oct-02 11:01N 37°25' E 025°21'0 0.0
2017-Oct-02 10:30N 37°25' E 025°21'0 0.0
2017-Oct-02 10:01N 37°25' E 025°21'0 0.0
2017-Oct-02 09:31N 37°25' E 025°21'0 0.0
2017-Oct-02 09:01N 37°25' E 025°21'0 0.0
2017-Oct-02 08:31N 37°25' E 025°21'  
2017-Sep-28 22:04N 37°25' E 025°21'0 0.3
2017-Sep-28 22:00N 37°25' E 025°21'0 0.0
2017-Sep-28 21:30N 37°25' E 025°21'0 0.0
2017-Sep-28 21:00N 37°25' E 025°21'0 0.0
2017-Sep-28 20:30N 37°25' E 025°21'0 0.0
2017-Sep-28 20:01N 37°25' E 025°21'0 0.0
2017-Sep-28 19:31N 37°25' E 025°21'0 0.0
2017-Sep-28 19:00N 37°25' E 025°21'0 0.0
2017-Sep-28 18:31N 37°25' E 025°21'0 0.0
2017-Sep-28 18:00N 37°25' E 025°21'0 0.0
2017-Sep-28 17:31N 37°25' E 025°21'0 0.0
2017-Sep-28 17:00N 37°25' E 025°21'0 0.0
2017-Sep-28 16:30N 37°25' E 025°21'1 1.8
2017-Sep-28 16:01N 37°25' E 025°20'0 0.1
2017-Sep-28 15:31N 37°25' E 025°20'0 0.3
2017-Sep-28 15:00N 37°25' E 025°20'0 0.1
2017-Sep-28 14:31N 37°25' E 025°20'0 0.3
2017-Sep-28 14:00N 37°25' E 025°20'0 0.5
2017-Sep-28 13:31N 37°25' E 025°19'5 9.1
2017-Sep-28 13:01N 37°23' E 025°14'0 0.8
2017-Sep-28 12:30N 37°23' E 025°14'0 0.0
2017-Sep-28 12:00N 37°23' E 025°14'0 0.0
2017-Sep-28 11:31N 37°23' E 025°14'0 0.0
2017-Sep-28 11:00N 37°23' E 025°14'0 0.0
2017-Sep-28 10:30N 37°23' E 025°14'0 0.0
2017-Sep-28 10:00N 37°23' E 025°14'0 0.0
2017-Sep-28 09:30N 37°23' E 025°14'0 0.0
2017-Sep-28 09:00N 37°23' E 025°14'2 3.4
2017-Sep-28 08:31N 37°22' E 025°16'5 9.2
2017-Sep-28 08:01N 37°24' E 025°21'0 0.0
2017-Sep-28 07:31N 37°24' E 025°21'0 0.1
2017-Sep-28 07:01N 37°24' E 025°21'0 0.0
2017-Sep-28 06:31N 37°24' E 025°21'0 0.0
2017-Sep-28 06:00N 37°24' E 025°21'0 0.0
2017-Sep-28 05:31N 37°24' E 025°21'0 0.0
2017-Sep-28 05:01N 37°24' E 025°21'0 0.0
2017-Sep-28 04:31N 37°24' E 025°21'0 0.0
2017-Sep-28 04:01N 37°24' E 025°21'0 0.0
2017-Sep-28 03:31N 37°24' E 025°21'0 0.1
2017-Sep-28 03:01N 37°24' E 025°21'0 0.0
2017-Sep-28 02:31N 37°24' E 025°21'0 0.0
2017-Sep-28 02:00N 37°24' E 025°21'0 0.0
2017-Sep-28 01:30N 37°24' E 025°21'0 0.0
2017-Sep-28 01:00N 37°24' E 025°21'0 0.0
2017-Sep-28 00:30N 37°24' E 025°21'0 0.0
2017-Sep-28 00:01N 37°24' E 025°21'0 0.0
2017-Sep-27 23:31N 37°24' E 025°21'0 0.0
2017-Sep-27 23:01N 37°24' E 025°21'0 0.0
2017-Sep-27 22:30N 37°24' E 025°21'0 0.0
2017-Sep-27 22:01N 37°24' E 025°21'0 0.0
2017-Sep-27 21:30N 37°24' E 025°21'0 0.0
2017-Sep-27 21:01N 37°24' E 025°21'0 0.0
2017-Sep-27 20:30N 37°24' E 025°21'0 0.0
2017-Sep-27 20:00N 37°24' E 025°21'0 0.0
2017-Sep-27 19:30N 37°24' E 025°21'0 0.0
2017-Sep-27 19:00N 37°24' E 025°21'0 0.0
2017-Sep-27 18:30N 37°24' E 025°21'0 0.0
2017-Sep-27 18:00N 37°24' E 025°21'0 0.0
2017-Sep-27 17:31N 37°24' E 025°21'0 0.0
2017-Sep-27 17:00N 37°24' E 025°21'0 0.0
2017-Sep-27 16:30N 37°24' E 025°21'0 0.0
2017-Sep-27 16:01N 37°24' E 025°21'0 0.0
2017-Sep-27 15:30N 37°24' E 025°21'0 0.0
2017-Sep-27 15:00N 37°24' E 025°21'0 0.0
2017-Sep-27 14:30N 37°24' E 025°21'0 0.0
2017-Sep-27 14:01N 37°24' E 025°21'0 0.0
2017-Sep-27 13:30N 37°24' E 025°21'0 0.0
2017-Sep-27 13:01N 37°24' E 025°21'0 0.0
2017-Sep-27 12:30N 37°24' E 025°21'0 0.0
2017-Sep-27 12:00N 37°24' E 025°21'0 0.0
2017-Sep-27 11:31N 37°24' E 025°21'0 0.0
2017-Sep-27 11:00N 37°24' E 025°21'0 0.0
2017-Sep-27 10:30N 37°24' E 025°21'0 0.0
2017-Sep-27 10:00N 37°24' E 025°21'0 0.0
2017-Sep-27 09:30N 37°24' E 025°21'0 0.0
2017-Sep-27 09:00N 37°24' E 025°21'0 0.0
2017-Sep-27 08:30N 37°24' E 025°21'0 0.0
2017-Sep-27 08:00N 37°24' E 025°21'0 0.0
2017-Sep-27 07:30N 37°24' E 025°21'0 0.0
2017-Sep-27 07:01N 37°24' E 025°21'0 0.0
2017-Sep-27 06:31N 37°24' E 025°21'0 0.0
2017-Sep-27 06:00N 37°24' E 025°21'0 0.0
2017-Sep-27 05:31N 37°24' E 025°21'0 0.0
2017-Sep-27 05:00N 37°24' E 025°21'0 0.0
2017-Sep-27 04:31N 37°24' E 025°21'0 0.0
2017-Sep-27 04:00N 37°24' E 025°21'0 0.0
2017-Sep-27 03:30N 37°24' E 025°21'0 0.0
2017-Sep-27 03:00N 37°24' E 025°21'0 0.0
2017-Sep-27 02:30N 37°24' E 025°21'0 0.0
2017-Sep-27 02:00N 37°24' E 025°21'0 0.0
2017-Sep-27 01:30N 37°24' E 025°21'0 0.0
2017-Sep-27 01:00N 37°24' E 025°21'0 0.0
2017-Sep-27 00:30N 37°24' E 025°21'0 0.0
2017-Sep-27 00:00N 37°24' E 025°21'0 0.0
2017-Sep-26 23:30N 37°24' E 025°21'0 0.0
2017-Sep-26 23:00N 37°24' E 025°21'0 0.0
2017-Sep-26 22:30N 37°25' E 025°21'0 0.0
2017-Sep-26 22:00N 37°24' E 025°21'0 0.0
2017-Sep-26 21:30N 37°24' E 025°21'0 0.0
2017-Sep-26 21:01N 37°24' E 025°21'0 0.0
2017-Sep-26 20:30N 37°24' E 025°21'0 0.0
2017-Sep-26 20:00N 37°24' E 025°21'0 0.0
2017-Sep-26 19:30N 37°24' E 025°21'0 0.0
2017-Sep-26 19:00N 37°24' E 025°21'0 0.0
2017-Sep-26 18:30N 37°24' E 025°21'0 0.0
2017-Sep-26 18:00N 37°24' E 025°21'0 0.0
2017-Sep-26 17:31N 37°24' E 025°21'0 0.0
2017-Sep-26 17:00N 37°24' E 025°21'0 0.0
2017-Sep-26 16:30N 37°24' E 025°21'0 0.0
2017-Sep-26 16:00N 37°24' E 025°21'0 0.0
2017-Sep-26 15:31N 37°24' E 025°21'0 0.0
2017-Sep-26 15:01N 37°24' E 025°21'0 0.0
2017-Sep-26 14:30N 37°24' E 025°21'0 0.0
2017-Sep-26 14:01N 37°24' E 025°21'0 0.0
2017-Sep-26 13:31N 37°24' E 025°21'0 0.0
2017-Sep-26 13:01N 37°24' E 025°21'0 0.0
2017-Sep-26 12:31N 37°24' E 025°21'0 0.0
2017-Sep-26 12:01N 37°25' E 025°21'0 0.0
2017-Sep-26 11:30N 37°24' E 025°21'0 0.0
2017-Sep-26 11:01N 37°25' E 025°21'0 0.0
2017-Sep-26 10:30N 37°25' E 025°21'0 0.0
2017-Sep-26 10:00N 37°24' E 025°21'0 0.0
2017-Sep-26 09:30N 37°24' E 025°21'0 0.0
2017-Sep-26 09:00N 37°25' E 025°21'3 5.0
2017-Sep-26 08:31N 37°26' E 025°18'2 3.8
2017-Sep-26 08:00N 37°27' E 025°20'0 0.0
2017-Sep-26 07:31N 37°27' E 025°20'0 0.0
2017-Sep-26 06:59N 37°27' E 025°20'0 0.0
2017-Sep-26 06:30N 37°27' E 025°20'0 0.0
2017-Sep-26 06:01N 37°27' E 025°20'0 0.0
2017-Sep-26 05:31N 37°27' E 025°20'0 0.0
2017-Sep-26 05:00N 37°27' E 025°20'0 0.0
2017-Sep-26 04:31N 37°27' E 025°20'0 0.0
2017-Sep-26 04:00N 37°27' E 025°20'0 0.0
2017-Sep-26 03:31N 37°27' E 025°20'0 0.0
2017-Sep-26 03:00N 37°27' E 025°20'0 0.0
2017-Sep-26 02:30N 37°27' E 025°20'0 0.0
2017-Sep-26 02:01N 37°27' E 025°20'0 0.0
2017-Sep-26 01:30N 37°27' E 025°20'0 0.0
2017-Sep-26 01:00N 37°27' E 025°20'0 0.0
2017-Sep-26 00:30N 37°27' E 025°20'0 0.0
2017-Sep-26 00:00N 37°27' E 025°20'0 0.0
2017-Sep-25 23:31N 37°27' E 025°20'0 0.0
2017-Sep-25 23:00N 37°27' E 025°20'0 0.0
2017-Sep-25 22:30N 37°27' E 025°20'0 0.0
2017-Sep-25 22:00N 37°27' E 025°20'0 0.0
2017-Sep-25 21:31N 37°27' E 025°20'0 0.0
2017-Sep-25 21:00N 37°27' E 025°20'0 0.0
2017-Sep-25 20:30N 37°27' E 025°20'0 0.0
2017-Sep-25 20:00N 37°27' E 025°20'0 0.0
2017-Sep-25 19:31N 37°27' E 025°20'0 0.0
2017-Sep-25 19:01N 37°27' E 025°20'0 0.0
2017-Sep-25 18:30N 37°27' E 025°20'0 0.0
2017-Sep-25 18:00N 37°27' E 025°20'0 0.0
2017-Sep-25 17:30N 37°27' E 025°20'0 0.0
2017-Sep-25 17:00N 37°27' E 025°20'  

Dump ship's entire track history